createdAt,value
2023-03-26T00:00:00.886Z,8.20
2023-03-26T00:04:05.748Z,8.25
2023-03-26T00:08:09.867Z,8.29
2023-03-26T00:12:12.659Z,8.33
2023-03-26T00:16:18.463Z,8.34
2023-03-26T00:20:21.258Z,8.35
2023-03-26T00:24:29.454Z,8.39
2023-03-26T00:28:32.235Z,8.44
2023-03-26T00:32:36.274Z,8.42
2023-03-26T00:36:38.947Z,8.42
2023-03-26T00:40:44.096Z,8.41
2023-03-26T00:44:46.900Z,8.44
2023-03-26T00:48:51.640Z,8.44
2023-03-26T00:52:55.876Z,8.47
2023-03-26T00:56:58.779Z,8.47
2023-03-26T01:01:04.002Z,8.47
2023-03-26T01:05:43.462Z,8.47
2023-03-26T01:09:50.393Z,8.41
2023-03-26T01:13:56.966Z,8.42
2023-03-26T01:17:59.772Z,8.42
2023-03-26T01:22:05.066Z,8.47
2023-03-26T01:26:23.247Z,8.48
2023-03-26T01:30:34.462Z,8.52
2023-03-26T01:34:51.673Z,8.54
2023-03-26T01:39:00.919Z,8.58
2023-03-26T01:43:13.858Z,8.55
2023-03-26T01:47:18.737Z,8.53
2023-03-26T01:51:29.400Z,8.54
2023-03-26T01:55:43.710Z,8.59
2023-03-26T02:00:14.786Z,8.59
2023-03-26T02:04:25.718Z,8.64
2023-03-26T02:08:35.839Z,8.67
2023-03-26T02:12:39.118Z,8.68
2023-03-26T02:16:46.682Z,8.69
2023-03-26T02:20:49.550Z,8.69
2023-03-26T02:24:52.372Z,8.69
2023-03-26T02:28:55.328Z,8.67
2023-03-26T02:33:00.004Z,8.65
2023-03-26T02:37:11.286Z,8.65
2023-03-26T02:41:17.116Z,8.63
2023-03-26T02:45:30.112Z,8.63
2023-03-26T02:49:53.073Z,8.62
2023-03-26T02:54:06.991Z,8.66
2023-03-26T02:58:38.164Z,8.61
2023-03-26T03:02:41.272Z,8.61
2023-03-26T03:07:05.731Z,8.62
2023-03-26T03:11:10.933Z,8.62
2023-03-26T03:15:17.410Z,8.65
2023-03-26T03:19:20.213Z,8.67
2023-03-26T03:23:25.389Z,8.66
2023-03-26T03:27:33.900Z,8.67
2023-03-26T03:31:44.391Z,8.68
2023-03-26T03:36:00.655Z,8.69
2023-03-26T03:40:07.651Z,8.73
2023-03-26T03:44:11.484Z,8.78
2023-03-26T03:48:14.171Z,8.79
2023-03-26T03:52:20.592Z,8.77
2023-03-26T03:56:26.147Z,8.77
2023-03-26T04:00:48.600Z,8.81
2023-03-26T04:05:19.961Z,8.81
2023-03-26T04:09:25.908Z,8.85
2023-03-26T04:13:33.630Z,8.89
2023-03-26T04:17:55.886Z,8.92
2023-03-26T04:22:02.399Z,8.90
2023-03-26T04:26:16.191Z,8.89
2023-03-26T04:30:44.938Z,8.91
2023-03-26T04:35:14.128Z,8.89
2023-03-26T04:39:19.761Z,8.90
2023-03-26T04:43:47.309Z,8.91
2023-03-26T04:48:14.277Z,8.91
2023-03-26T04:52:17.139Z,8.95
2023-03-26T04:56:44.070Z,8.93
2023-03-26T05:01:10.135Z,8.91
2023-03-26T05:05:18.672Z,8.91
2023-03-26T05:09:22.423Z,8.91
2023-03-26T05:13:51.374Z,8.94
2023-03-26T05:17:55.552Z,8.93
2023-03-26T05:22:14.686Z,8.92
2023-03-26T05:26:38.118Z,8.91
2023-03-26T05:30:41.126Z,8.93
2023-03-26T05:34:43.848Z,8.92
2023-03-26T05:38:49.616Z,8.90
2023-03-26T05:43:31.759Z,8.88
2023-03-26T05:47:47.846Z,8.88
2023-03-26T05:51:50.764Z,8.89
2023-03-26T05:56:13.582Z,8.90
2023-03-26T06:00:38.308Z,8.91
2023-03-26T06:04:42.595Z,8.88
2023-03-26T06:09:08.698Z,8.92
2023-03-26T06:13:13.636Z,8.94
2023-03-26T06:17:17.004Z,8.96
2023-03-26T06:21:45.871Z,8.92
2023-03-26T06:25:54.780Z,8.95
2023-03-26T06:30:15.442Z,9.02
2023-03-26T06:34:50.757Z,9.08
2023-03-26T06:38:53.542Z,9.13
2023-03-26T06:43:07.017Z,9.17
2023-03-26T06:47:31.215Z,9.19
2023-03-26T06:51:33.888Z,9.19
2023-03-26T06:56:03.164Z,9.29
2023-03-26T07:00:24.767Z,9.42
2023-03-26T07:04:47.637Z,9.49
2023-03-26T07:09:30.198Z,9.56
2023-03-26T07:13:39.998Z,9.65
2023-03-26T07:18:01.628Z,9.72
2023-03-26T07:22:16.314Z,9.76
2023-03-26T07:26:49.032Z,9.83
2023-03-26T07:31:04.069Z,9.85
2023-03-26T07:35:20.962Z,9.81
2023-03-26T07:39:53.317Z,9.84
2023-03-26T07:44:21.327Z,9.79
2023-03-26T07:48:44.862Z,9.68
2023-03-26T07:52:57.153Z,9.70
2023-03-26T07:57:18.532Z,9.67
2023-03-26T08:01:47.205Z,9.76
2023-03-26T08:06:04.163Z,9.68
2023-03-26T08:10:18.648Z,9.46
2023-03-26T08:14:45.441Z,9.38
2023-03-26T08:18:57.322Z,9.39
2023-03-26T08:23:06.609Z,9.40
2023-03-26T08:27:15.948Z,9.36
2023-03-26T08:31:27.749Z,9.35
2023-03-26T08:35:30.877Z,9.34
2023-03-26T08:39:33.702Z,9.29
2023-03-26T08:43:59.528Z,9.29
2023-03-26T08:48:21.683Z,9.33
2023-03-26T08:52:37.887Z,9.37
2023-03-26T08:56:52.519Z,9.37
2023-03-26T09:01:21.451Z,9.38
2023-03-26T09:06:25.325Z,9.25
2023-03-26T09:10:47.167Z,9.26
2023-03-26T09:15:27.151Z,9.30
2023-03-26T09:20:02.351Z,9.27
2023-03-26T09:24:47.287Z,9.27
2023-03-26T09:29:21.805Z,9.19
2023-03-26T09:33:59.342Z,9.19
2023-03-26T09:38:12.348Z,9.18
2023-03-26T09:42:24.235Z,9.13
2023-03-26T09:46:41.146Z,9.18
2023-03-26T09:51:07.010Z,9.26
2023-03-26T09:55:28.460Z,9.38
2023-03-26T09:59:57.274Z,9.44
2023-03-26T10:04:38.513Z,9.57
2023-03-26T10:08:55.455Z,9.70
2023-03-26T10:13:14.137Z,9.79
2023-03-26T10:17:34.554Z,9.85
2023-03-26T10:21:46.392Z,9.82
2023-03-26T10:26:04.382Z,9.80
2023-03-26T10:30:37.768Z,9.82
2023-03-26T10:34:51.829Z,9.85
2023-03-26T10:39:04.660Z,9.90
2023-03-26T10:43:21.982Z,9.85
2023-03-26T10:48:00.374Z,9.83
2023-03-26T10:52:05.687Z,9.78
2023-03-26T10:56:22.782Z,9.80
2023-03-26T11:00:29.208Z,9.84
2023-03-26T11:04:44.958Z,9.84
2023-03-26T11:08:53.979Z,9.95
2023-03-26T11:13:05.500Z,10.02
2023-03-26T11:17:40.411Z,10.09
2023-03-26T11:21:47.441Z,10.16
2023-03-26T11:26:06.936Z,10.20
2023-03-26T11:30:28.723Z,10.26
2023-03-26T11:34:37.109Z,10.30
2023-03-26T11:38:43.638Z,10.33
2023-03-26T11:42:54.386Z,10.33
2023-03-26T11:47:04.434Z,10.32
2023-03-26T11:51:10.357Z,10.24
2023-03-26T11:55:13.798Z,10.17
2023-03-26T11:59:21.688Z,10.11
2023-03-26T12:03:26.016Z,10.10
2023-03-26T12:07:32.440Z,10.10
2023-03-26T12:11:36.057Z,10.10
2023-03-26T12:15:44.575Z,10.11
2023-03-26T12:19:48.546Z,10.09
2023-03-26T12:24:00.926Z,10.13
2023-03-26T12:28:05.884Z,10.23
2023-03-26T12:32:15.190Z,10.25
2023-03-26T12:36:23.330Z,10.24
2023-03-26T12:40:32.527Z,10.23
2023-03-26T12:44:49.934Z,10.16
2023-03-26T12:49:05.527Z,10.11
2023-03-26T12:53:29.088Z,10.08
2023-03-26T12:57:39.228Z,10.01
2023-03-26T13:01:54.828Z,9.96
2023-03-26T13:06:08.473Z,9.95
2023-03-26T13:10:38.850Z,9.98
2023-03-26T13:14:57.315Z,9.92
2023-03-26T13:19:04.108Z,9.95
2023-03-26T13:23:18.248Z,9.97
2023-03-26T13:27:36.633Z,9.91
2023-03-26T13:31:49.568Z,9.96
2023-03-26T13:36:14.298Z,10.05
2023-03-26T13:40:28.075Z,10.19
2023-03-26T13:44:39.145Z,10.29
2023-03-26T13:48:50.746Z,10.43
2023-03-26T13:52:57.239Z,10.43
2023-03-26T13:57:08.382Z,10.38
2023-03-26T14:01:17.460Z,10.34
2023-03-26T14:05:25.753Z,10.36
2023-03-26T14:09:32.687Z,10.52
2023-03-26T14:13:42.695Z,10.63
2023-03-26T14:17:52.508Z,10.67
2023-03-26T14:22:03.469Z,10.71
2023-03-26T14:26:20.190Z,10.65
2023-03-26T14:30:59.352Z,10.38
2023-03-26T14:35:24.475Z,10.40
2023-03-26T14:39:48.082Z,10.42
2023-03-26T14:44:14.585Z,10.43
2023-03-26T14:48:50.496Z,10.53
2023-03-26T14:53:01.062Z,10.66
2023-03-26T14:57:46.399Z,10.57
2023-03-26T15:02:38.996Z,10.32
2023-03-26T15:07:31.308Z,10.08
2023-03-26T15:11:46.691Z,9.91
2023-03-26T15:16:13.269Z,9.83
2023-03-26T15:20:44.171Z,9.72
2023-03-26T15:25:37.406Z,9.76
2023-03-26T15:30:05.735Z,9.84
2023-03-26T15:34:30.414Z,9.87
2023-03-26T15:39:01.188Z,9.78
2023-03-26T15:43:11.448Z,9.56
2023-03-26T15:47:47.439Z,9.38
2023-03-26T15:51:56.442Z,9.30
2023-03-26T15:56:16.038Z,9.25
2023-03-26T16:00:23.248Z,9.21
2023-03-26T16:04:50.641Z,9.16
2023-03-26T16:09:07.792Z,9.15
2023-03-26T16:13:27.659Z,9.10
2023-03-26T16:18:22.622Z,9.06
2023-03-26T16:22:56.013Z,8.95
2023-03-26T16:27:32.159Z,8.92
2023-03-26T16:31:37.846Z,8.88
2023-03-26T16:36:01.893Z,8.72
2023-03-26T16:40:36.920Z,8.60
2023-03-26T16:44:47.649Z,8.52
2023-03-26T16:48:58.146Z,8.55
2023-03-26T16:53:13.346Z,8.41
2023-03-26T16:57:27.976Z,8.42
2023-03-26T17:01:41.452Z,8.35
2023-03-26T17:06:02.175Z,8.31
2023-03-26T17:10:16.424Z,8.19
2023-03-26T17:14:31.878Z,8.04
2023-03-26T17:18:46.807Z,7.87
2023-03-26T17:22:58.964Z,7.79
2023-03-26T17:27:09.634Z,7.79
2023-03-26T17:31:24.171Z,7.70
2023-03-26T17:35:42.734Z,7.70
2023-03-26T17:40:36.415Z,7.65
2023-03-26T17:44:44.622Z,7.43
2023-03-26T17:48:54.814Z,7.39
2023-03-26T17:52:59.257Z,7.34
2023-03-26T17:57:05.054Z,7.27
2023-03-26T18:01:21.647Z,7.17
2023-03-26T18:05:30.017Z,7.08
2023-03-26T18:09:48.112Z,7.09
2023-03-26T18:14:26.076Z,7.01
2023-03-26T18:18:33.121Z,7.01
2023-03-26T18:22:37.418Z,6.92
2023-03-26T18:26:42.657Z,6.75
2023-03-26T18:30:49.653Z,6.64
2023-03-26T18:34:57.157Z,6.56
2023-03-26T18:39:01.599Z,6.45
2023-03-26T18:43:04.318Z,6.43
2023-03-26T18:47:09.647Z,6.26
2023-03-26T18:51:13.130Z,6.19
2023-03-26T18:55:17.310Z,6.15
2023-03-26T18:59:27.998Z,6.01
2023-03-26T19:03:35.456Z,5.90
2023-03-26T19:07:39.147Z,5.89
2023-03-26T19:11:45.327Z,5.83
2023-03-26T19:15:50.314Z,5.82
2023-03-26T19:19:53.242Z,5.78
2023-03-26T19:23:56.582Z,5.68
2023-03-26T19:28:00.825Z,5.54
2023-03-26T19:32:06.305Z,5.48
2023-03-26T19:36:18.882Z,5.49
2023-03-26T19:40:29.596Z,5.41
2023-03-26T19:44:34.186Z,5.30
2023-03-26T19:48:46.810Z,5.25
2023-03-26T19:53:15.415Z,5.18
2023-03-26T19:57:19.810Z,5.17
2023-03-26T20:01:26.689Z,5.18
2023-03-26T20:05:34.028Z,5.14
2023-03-26T20:09:36.721Z,5.13
2023-03-26T20:13:39.428Z,5.05
2023-03-26T20:17:44.677Z,5.07
2023-03-26T20:21:47.440Z,4.99
2023-03-26T20:25:54.405Z,4.93
2023-03-26T20:29:57.595Z,4.91
2023-03-26T20:34:01.766Z,4.87
2023-03-26T20:38:05.325Z,4.75
2023-03-26T20:42:11.999Z,4.78
2023-03-26T20:46:18.658Z,4.69
2023-03-26T20:50:26.638Z,4.76
2023-03-26T20:54:30.692Z,4.81
2023-03-26T20:58:33.437Z,4.78
2023-03-26T21:02:37.027Z,4.76
2023-03-26T21:06:41.179Z,4.71
2023-03-26T21:10:44.732Z,4.74
2023-03-26T21:14:47.878Z,4.74
2023-03-26T21:18:51.698Z,4.66
2023-03-26T21:23:04.963Z,4.70
2023-03-26T21:27:15.094Z,4.66
2023-03-26T21:31:20.734Z,4.66
2023-03-26T21:35:24.276Z,4.66
2023-03-26T21:39:29.942Z,4.67
2023-03-26T21:43:32.835Z,4.63
2023-03-26T21:47:36.230Z,4.53
2023-03-26T21:51:39.864Z,4.50
2023-03-26T21:55:58.488Z,4.46
2023-03-26T22:00:14.637Z,4.30
2023-03-26T22:04:24.757Z,4.25
2023-03-26T22:08:31.472Z,4.22
2023-03-26T22:12:36.241Z,4.18
2023-03-26T22:16:38.911Z,4.10
2023-03-26T22:20:42.632Z,4.09
2023-03-26T22:24:45.385Z,4.05
2023-03-26T22:28:50.156Z,3.99
2023-03-26T22:32:53.308Z,3.95
2023-03-26T22:36:56.180Z,3.94
2023-03-26T22:40:59.103Z,3.94
2023-03-26T22:45:04.073Z,3.90
2023-03-26T22:49:07.376Z,3.80
2023-03-26T22:53:10.337Z,3.76
2023-03-26T22:57:13.467Z,3.73
2023-03-26T23:01:20.294Z,3.73
2023-03-26T23:05:23.468Z,3.75
2023-03-26T23:09:26.346Z,3.75
2023-03-26T23:13:29.070Z,3.71
2023-03-26T23:17:35.257Z,3.72
2023-03-26T23:21:38.030Z,3.69
2023-03-26T23:25:40.705Z,3.69
2023-03-26T23:29:45.890Z,3.70
2023-03-26T23:33:50.442Z,3.62
2023-03-26T23:37:53.968Z,3.65
2023-03-26T23:41:56.672Z,3.62
2023-03-26T23:45:59.851Z,3.59
2023-03-26T23:50:06.818Z,3.55
2023-03-26T23:54:11.609Z,3.53
2023-03-26T23:58:14.655Z,3.45
